sensor_id;sensor_type;location;lat;lon;timestamp;pressure;altitude;pressure_sealevel;temperature;humidity
70758;BME280;59316;52.964;7.102;2023-04-01T00:00:03;99180.13;;;13.59;100.00
70758;BME280;59316;52.964;7.102;2023-04-01T00:05:31;99179.31;;;13.59;100.00
70758;BME280;59316;52.964;7.102;2023-04-01T00:10:56;99178.09;;;13.53;100.00
70758;BME280;59316;52.964;7.102;2023-04-01T00:16:18;99179.31;;;13.41;100.00
70758;BME280;59316;52.964;7.102;2023-04-01T00:21:42;99181.94;;;13.41;100.00
70758;BME280;59316;52.964;7.102;2023-04-01T00:27:03;99182.81;;;13.31;100.00
70758;BME280;59316;52.964;7.102;2023-04-01T00:32:25;99180.19;;;13.31;100.00
70758;BME280;59316;52.964;7.102;2023-04-01T00:37:46;99174.13;;;13.31;100.00
70758;BME280;59316;52.964;7.102;2023-04-01T00:43:26;99175.19;;;13.38;100.00
70758;BME280;59316;52.964;7.102;2023-04-01T00:48:51;99172.31;;;13.31;100.00
70758;BME280;59316;52.964;7.102;2023-04-01T00:54:16;99171.66;;;13.29;100.00
70758;BME280;59316;52.964;7.102;2023-04-01T00:59:44;99171.34;;;13.32;100.00
70758;BME280;59316;52.964;7.102;2023-04-01T01:05:13;99163.41;;;13.24;100.00
70758;BME280;59316;52.964;7.102;2023-04-01T01:10:43;99159.94;;;13.42;100.00
70758;BME280;59316;52.964;7.102;2023-04-01T01:16:24;99161.59;;;13.43;100.00
70758;BME280;59316;52.964;7.102;2023-04-01T01:22:01;99161.06;;;13.39;100.00
70758;BME280;59316;52.964;7.102;2023-04-01T01:27:34;99163.03;;;13.37;100.00
70758;BME280;59316;52.964;7.102;2023-04-01T01:33:24;99159.81;;;13.43;100.00
70758;BME280;59316;52.964;7.102;2023-04-01T01:39:04;99160.63;;;13.44;100.00
70758;BME280;59316;52.964;7.102;2023-04-01T01:44:29;99165.81;;;13.36;100.00
70758;BME280;59316;52.964;7.102;2023-04-01T01:49:53;99159.06;;;13.33;100.00
70758;BME280;59316;52.964;7.102;2023-04-01T01:55:31;99167.09;;;13.50;100.00
70758;BME280;59316;52.964;7.102;2023-04-01T02:01:03;99165.13;;;13.52;100.00
70758;BME280;59316;52.964;7.102;2023-04-01T02:06:29;99176.53;;;13.24;100.00
70758;BME280;59316;52.964;7.102;2023-04-01T02:11:57;99173.31;;;13.30;100.00
70758;BME280;59316;52.964;7.102;2023-04-01T02:17:32;99175.78;;;13.32;100.00
70758;BME280;59316;52.964;7.102;2023-04-01T02:22:56;99181.56;;;13.36;100.00
70758;BME280;59316;52.964;7.102;2023-04-01T02:28:19;99184.56;;;13.41;100.00
70758;BME280;59316;52.964;7.102;2023-04-01T02:33:42;99172.03;;;13.53;100.00
70758;BME280;59316;52.964;7.102;2023-04-01T02:39:04;99179.38;;;13.49;100.00
70758;BME280;59316;52.964;7.102;2023-04-01T02:44:26;99184.34;;;13.52;100.00
70758;BME280;59316;52.964;7.102;2023-04-01T02:49:48;99189.88;;;13.49;100.00
70758;BME280;59316;52.964;7.102;2023-04-01T02:55:26;99189.97;;;13.57;100.00
70758;BME280;59316;52.964;7.102;2023-04-01T03:00:48;99195.88;;;13.41;100.00
70758;BME280;59316;52.964;7.102;2023-04-01T03:06:11;99197.31;;;13.54;100.00
70758;BME280;59316;52.964;7.102;2023-04-01T03:11:34;99193.94;;;13.61;100.00
70758;BME280;59316;52.964;7.102;2023-04-01T03:16:56;99209.00;;;13.59;100.00
70758;BME280;59316;52.964;7.102;2023-04-01T03:22:17;99204.50;;;13.70;100.00
70758;BME280;59316;52.964;7.102;2023-04-01T03:27:42;99207.75;;;13.45;100.00
70758;BME280;59316;52.964;7.102;2023-04-01T03:33:04;99207.16;;;13.52;100.00
70758;BME280;59316;52.964;7.102;2023-04-01T03:38:26;99221.13;;;13.52;100.00
70758;BME280;59316;52.964;7.102;2023-04-01T03:43:50;99225.47;;;13.43;100.00
70758;BME280;59316;52.964;7.102;2023-04-01T03:49:14;99224.88;;;13.50;100.00
70758;BME280;59316;52.964;7.102;2023-04-01T03:54:36;99231.53;;;13.62;100.00
70758;BME280;59316;52.964;7.102;2023-04-01T03:59:58;99232.06;;;13.66;100.00
70758;BME280;59316;52.964;7.102;2023-04-01T04:05:20;99235.13;;;13.61;100.00
70758;BME280;59316;52.964;7.102;2023-04-01T04:10:43;99238.44;;;13.45;100.00
70758;BME280;59316;52.964;7.102;2023-04-01T04:16:11;99249.53;;;13.39;100.00
70758;BME280;59316;52.964;7.102;2023-04-01T04:21:39;99254.16;;;13.09;100.00
70758;BME280;59316;52.964;7.102;2023-04-01T04:27:02;99259.63;;;13.15;100.00
70758;BME280;59316;52.964;7.102;2023-04-01T04:32:24;99261.47;;;13.05;100.00
70758;BME280;59316;52.964;7.102;2023-04-01T04:37:50;99271.91;;;13.15;100.00
70758;BME280;59316;52.964;7.102;2023-04-01T04:43:16;99272.16;;;13.22;100.00
70758;BME280;59316;52.964;7.102;2023-04-01T04:48:38;99278.47;;;13.29;100.00
70758;BME280;59316;52.964;7.102;2023-04-01T04:54:00;99285.00;;;13.43;100.00
70758;BME280;59316;52.964;7.102;2023-04-01T04:59:42;99295.38;;;13.44;100.00
70758;BME280;59316;52.964;7.102;2023-04-01T05:05:07;99302.44;;;13.62;100.00
70758;BME280;59316;52.964;7.102;2023-04-01T05:10:29;99301.91;;;13.76;100.00
70758;BME280;59316;52.964;7.102;2023-04-01T05:15:54;99299.28;;;13.76;100.00
70758;BME280;59316;52.964;7.102;2023-04-01T05:21:16;99318.75;;;13.84;100.00
70758;BME280;59316;52.964;7.102;2023-04-01T05:26:37;99320.47;;;13.75;100.00
70758;BME280;59316;52.964;7.102;2023-04-01T05:31:59;99321.59;;;13.72;100.00
70758;BME280;59316;52.964;7.102;2023-04-01T05:37:21;99324.53;;;13.69;100.00
70758;BME280;59316;52.964;7.102;2023-04-01T05:42:42;99328.28;;;13.67;100.00
70758;BME280;59316;52.964;7.102;2023-04-01T05:48:04;99335.25;;;13.76;100.00
70758;BME280;59316;52.964;7.102;2023-04-01T05:53:32;99345.19;;;13.82;100.00
70758;BME280;59316;52.964;7.102;2023-04-01T05:58:53;99348.59;;;13.64;100.00
70758;BME280;59316;52.964;7.102;2023-04-01T06:04:17;99347.66;;;13.84;100.00
70758;BME280;59316;52.964;7.102;2023-04-01T06:09:39;99356.28;;;13.94;100.00
70758;BME280;59316;52.964;7.102;2023-04-01T06:27:07;99382.84;;;14.37;100.00
70758;BME280;59316;52.964;7.102;2023-04-01T06:38:55;99392.63;;;14.71;100.00
70758;BME280;59316;52.964;7.102;2023-04-01T06:56:59;99406.50;;;14.81;100.00
70758;BME280;59316;52.964;7.102;2023-04-01T07:02:34;99415.47;;;14.70;100.00
70758;BME280;59316;52.964;7.102;2023-04-01T07:08:04;99431.38;;;14.87;100.00
70758;BME280;59316;52.964;7.102;2023-04-01T07:13:45;99430.53;;;14.86;100.00
70758;BME280;59316;52.964;7.102;2023-04-01T07:19:29;99438.94;;;14.64;100.00
70758;BME280;59316;52.964;7.102;2023-04-01T07:25:16;99457.44;;;14.36;100.00
70758;BME280;59316;52.964;7.102;2023-04-01T07:38:05;99478.66;;;14.97;100.00
70758;BME280;59316;52.964;7.102;2023-04-01T07:43:50;99472.50;;;15.06;100.00
70758;BME280;59316;52.964;7.102;2023-04-01T07:49:34;99483.72;;;14.90;100.00
70758;BME280;59316;52.964;7.102;2023-04-01T08:00:48;99498.41;;;15.19;100.00
70758;BME280;59316;52.964;7.102;2023-04-01T08:06:35;99509.66;;;15.29;100.00
70758;BME280;59316;52.964;7.102;2023-04-01T08:18:15;99521.94;;;15.38;100.00
70758;BME280;59316;52.964;7.102;2023-04-01T08:23:48;99512.78;;;15.51;100.00
70758;BME280;59316;52.964;7.102;2023-04-01T08:29:22;99531.69;;;15.46;100.00
70758;BME280;59316;52.964;7.102;2023-04-01T08:35:24;99543.84;;;15.39;100.00
70758;BME280;59316;52.964;7.102;2023-04-01T08:52:35;99569.56;;;15.71;100.00
70758;BME280;59316;52.964;7.102;2023-04-01T08:59:05;99578.72;;;16.28;100.00
70758;BME280;59316;52.964;7.102;2023-04-01T09:04:37;99580.00;;;16.16;100.00
70758;BME280;59316;52.964;7.102;2023-04-01T09:10:39;99581.00;;;16.15;100.00
70758;BME280;59316;52.964;7.102;2023-04-01T09:28:28;99597.25;;;17.04;100.00
70758;BME280;59316;52.964;7.102;2023-04-01T10:27:05;99688.97;;;15.72;100.00
70758;BME280;59316;52.964;7.102;2023-04-01T11:33:36;99795.63;;;13.60;100.00
70758;BME280;59316;52.964;7.102;2023-04-01T11:39:24;99807.41;;;13.25;100.00
70758;BME280;59316;52.964;7.102;2023-04-01T11:45:13;99814.38;;;13.45;100.00
70758;BME280;59316;52.964;7.102;2023-04-01T12:08:49;99864.50;;;13.23;100.00
70758;BME280;59316;52.964;7.102;2023-04-01T12:20:38;99885.66;;;13.00;100.00
70758;BME280;59316;52.964;7.102;2023-04-01T13:05:56;99972.03;;;12.82;100.00
70758;BME280;59316;52.964;7.102;2023-04-01T13:17:28;99988.06;;;13.31;100.00
70758;BME280;59316;52.964;7.102;2023-04-01T13:28:57;100019.16;;;12.72;100.00
70758;BME280;59316;52.964;7.102;2023-04-01T13:35:08;100027.00;;;12.84;100.00
70758;BME280;59316;52.964;7.102;2023-04-01T13:41:15;100025.53;;;13.12;100.00
70758;BME280;59316;52.964;7.102;2023-04-01T14:04:46;100077.88;;;12.48;100.00
70758;BME280;59316;52.964;7.102;2023-04-01T14:27:48;100106.22;;;12.66;100.00
70758;BME280;59316;52.964;7.102;2023-04-01T14:33:43;100116.53;;;12.90;100.00
70758;BME280;59316;52.964;7.102;2023-04-01T14:45:40;100138.25;;;12.92;100.00
70758;BME280;59316;52.964;7.102;2023-04-01T14:51:16;100150.66;;;12.90;100.00
70758;BME280;59316;52.964;7.102;2023-04-01T14:57:11;100154.66;;;12.51;100.00
70758;BME280;59316;52.964;7.102;2023-04-01T15:03:00;100170.16;;;12.54;100.00
70758;BME280;59316;52.964;7.102;2023-04-01T15:09:11;100182.78;;;12.71;100.00
70758;BME280;59316;52.964;7.102;2023-04-01T15:20:56;100214.72;;;12.65;100.00
70758;BME280;59316;52.964;7.102;2023-04-01T15:26:42;100230.06;;;12.24;100.00
70758;BME280;59316;52.964;7.102;2023-04-01T15:32:50;100240.53;;;12.02;100.00
70758;BME280;59316;52.964;7.102;2023-04-01T15:38:46;100257.47;;;12.20;100.00
70758;BME280;59316;52.964;7.102;2023-04-01T15:45:17;100241.63;;;11.75;100.00
70758;BME280;59316;52.964;7.102;2023-04-01T16:02:45;100312.69;;;11.94;100.00
70758;BME280;59316;52.964;7.102;2023-04-01T16:20:18;100350.81;;;11.74;100.00
70758;BME280;59316;52.964;7.102;2023-04-01T16:25:45;100359.00;;;11.45;100.00
70758;BME280;59316;52.964;7.102;2023-04-01T16:31:51;100368.56;;;11.08;100.00
70758;BME280;59316;52.964;7.102;2023-04-01T16:37:53;100385.13;;;11.08;100.00
70758;BME280;59316;52.964;7.102;2023-04-01T16:43:39;100402.19;;;11.01;100.00
70758;BME280;59316;52.964;7.102;2023-04-01T16:49:29;100419.16;;;11.08;100.00
70758;BME280;59316;52.964;7.102;2023-04-01T16:55:16;100425.44;;;10.80;100.00
70758;BME280;59316;52.964;7.102;2023-04-01T17:00:47;100443.78;;;10.65;100.00
70758;BME280;59316;52.964;7.102;2023-04-01T17:23:43;100497.53;;;10.97;100.00
70758;BME280;59316;52.964;7.102;2023-04-01T17:35:39;100532.09;;;10.20;100.00
70758;BME280;59316;52.964;7.102;2023-04-01T17:59:03;100594.34;;;9.84;100.00
70758;BME280;59316;52.964;7.102;2023-04-01T18:10:29;100619.91;;;9.65;100.00
70758;BME280;59316;52.964;7.102;2023-04-01T18:16:34;100632.56;;;9.71;100.00
70758;BME280;59316;52.964;7.102;2023-04-01T18:39:47;100701.13;;;9.75;100.00
70758;BME280;59316;52.964;7.102;2023-04-01T18:45:21;100709.97;;;9.72;100.00
70758;BME280;59316;52.964;7.102;2023-04-01T18:50:53;100727.25;;;9.75;100.00
70758;BME280;59316;52.964;7.102;2023-04-01T18:56:35;100734.78;;;9.65;100.00
70758;BME280;59316;52.964;7.102;2023-04-01T19:07:40;100743.66;;;9.46;100.00
70758;BME280;59316;52.964;7.102;2023-04-01T19:25:08;100810.88;;;9.27;100.00
70758;BME280;59316;52.964;7.102;2023-04-01T19:30:54;100811.19;;;9.20;100.00
70758;BME280;59316;52.964;7.102;2023-04-01T19:53:59;100861.28;;;9.59;100.00
70758;BME280;59316;52.964;7.102;2023-04-01T19:59:49;100872.63;;;9.26;100.00
70758;BME280;59316;52.964;7.102;2023-04-01T20:22:48;100933.44;;;8.95;100.00
70758;BME280;59316;52.964;7.102;2023-04-01T20:51:23;100990.50;;;8.66;100.00
70758;BME280;59316;52.964;7.102;2023-04-01T21:03:49;101020.88;;;8.67;100.00
70758;BME280;59316;52.964;7.102;2023-04-01T21:38:51;101089.56;;;8.66;100.00
70758;BME280;59316;52.964;7.102;2023-04-01T22:14:36;101161.72;;;8.27;100.00
70758;BME280;59316;52.964;7.102;2023-04-01T22:20:26;101174.97;;;8.42;100.00
70758;BME280;59316;52.964;7.102;2023-04-01T22:26:17;101185.19;;;8.27;100.00
70758;BME280;59316;52.964;7.102;2023-04-01T22:32:07;101189.56;;;8.27;100.00
70758;BME280;59316;52.964;7.102;2023-04-01T22:38:09;101206.09;;;8.26;100.00
70758;BME280;59316;52.964;7.102;2023-04-01T22:43:39;101207.66;;;7.68;100.00
70758;BME280;59316;52.964;7.102;2023-04-01T22:54:52;101236.16;;;7.71;100.00
70758;BME280;59316;52.964;7.102;2023-04-01T23:05:57;101251.97;;;7.66;100.00
70758;BME280;59316;52.964;7.102;2023-04-01T23:11:27;101262.09;;;7.30;100.00
70758;BME280;59316;52.964;7.102;2023-04-01T23:22:38;101284.31;;;7.61;100.00
70758;BME280;59316;52.964;7.102;2023-04-01T23:28:56;101296.00;;;7.50;100.00
70758;BME280;59316;52.964;7.102;2023-04-01T23:34:27;101309.19;;;7.46;100.00
70758;BME280;59316;52.964;7.102;2023-04-01T23:39:59;101321.22;;;7.48;100.00
70758;BME280;59316;52.964;7.102;2023-04-01T23:45:20;101327.59;;;7.63;100.00
70758;BME280;59316;52.964;7.102;2023-04-01T23:50:41;101328.41;;;7.64;100.00
70758;BME280;59316;52.964;7.102;2023-04-01T23:56:04;101342.47;;;7.37;100.00
